Archival Weather

Kayes/Dag-Dag

Kayes/Dag-Dag, Mali (GAKD)

Report from: Thursday, September 21, 2023 8:00 PM UTC
Current time: Friday, February 23, 2024 7:44 PM UTC

Current weather – Weather history – Daily summaries
Weather forecast

Temperature30.0°C (86.0°F)
Heat index36.3°C (97.3°F)
Dew point25.0°C (77.0°F)
Winds 4 kts (2.1 m/s, 4.6 mph) Northwest (320°)
Visibility6.2 mi. (10 km)
Clouds Few clouds 2,000 ft. (610 m)
Altimeter29.85 in.Hg (1011 mB)
Relative humidity75 %
Density altitude2,217 ft. (676 m)
Flight conditions Visual Meteorological Conditions
Raw dataGAKD 212000Z 32004KT 9999 FEW020 30/25 Q1011
An error has occurred. This application may no longer respond until reloaded. Reload 🗙